sensor_id;sensor_type;location;lat;lon;timestamp;pressure;altitude;pressure_sealevel;temperature;humidity
53940;BME280;39850;43.324;21.916;2023-04-08T00:19:24;993.0;;;6.2;67.0
53940;BME280;39850;43.324;21.916;2023-04-08T00:24:00;993.0;;;6.2;67.0
53940;BME280;39850;43.324;21.916;2023-04-08T00:28:38;993.0;;;6.2;67.0
53940;BME280;39850;43.324;21.916;2023-04-08T00:33:14;993.0;;;6.2;68.0
53940;BME280;39850;43.324;21.916;2023-04-08T00:37:51;993.0;;;6.2;68.0
53940;BME280;39850;43.324;21.916;2023-04-08T00:42:29;993.0;;;6.2;68.0
53940;BME280;39850;43.324;21.916;2023-04-08T00:47:06;993.0;;;6.2;68.0
53940;BME280;39850;43.324;21.916;2023-04-08T00:51:48;993.0;;;6.4;69.0
53940;BME280;39850;43.324;21.916;2023-04-08T00:56:26;993.0;;;6.4;69.0
53940;BME280;39850;43.324;21.916;2023-04-08T01:01:38;993.0;;;6.5;68.0
53940;BME280;39850;43.324;21.916;2023-04-08T01:06:55;993.0;;;6.5;68.0
53940;BME280;39850;43.324;21.916;2023-04-08T01:39:58;993.0;;;6.4;70.0
53940;BME280;39850;43.324;21.916;2023-04-08T01:44:42;993.0;;;6.4;70.0
53940;BME280;39850;43.324;21.916;2023-04-08T01:49:26;993.0;;;6.4;70.0
53940;BME280;39850;43.324;21.916;2023-04-08T01:54:03;993.0;;;6.4;70.0
53940;BME280;39850;43.324;21.916;2023-04-08T01:58:54;993.0;;;6.4;70.0
53940;BME280;39850;43.324;21.916;2023-04-08T02:03:45;993.0;;;6.4;70.0
53940;BME280;39850;43.324;21.916;2023-04-08T02:08:24;993.0;;;6.4;70.0
53940;BME280;39850;43.324;21.916;2023-04-08T02:13:02;993.0;;;6.2;70.0
53940;BME280;39850;43.324;21.916;2023-04-08T02:17:55;993.0;;;6.2;70.0
53940;BME280;39850;43.324;21.916;2023-04-08T02:23:09;993.0;;;5.9;70.0
53940;BME280;39850;43.324;21.916;2023-04-08T02:28:03;993.0;;;5.9;70.0
53940;BME280;39850;43.324;21.916;2023-04-08T03:00:34;993.0;;;5.7;71.0
53940;BME280;39850;43.324;21.916;2023-04-08T03:05:11;993.0;;;5.7;71.0
53940;BME280;39850;43.324;21.916;2023-04-08T03:09:48;993.0;;;5.7;71.0
53940;BME280;39850;43.324;21.916;2023-04-08T03:14:25;993.0;;;6.1;71.0
53940;BME280;39850;43.324;21.916;2023-04-08T03:19:02;993.0;;;6.1;71.0
53940;BME280;39850;43.324;21.916;2023-04-08T03:23:39;993.0;;;6.2;70.0
53940;BME280;39850;43.324;21.916;2023-04-08T03:28:16;993.0;;;6.2;70.0
53940;BME280;39850;43.324;21.916;2023-04-08T03:32:53;993.0;;;6.3;70.0
53940;BME280;39850;43.324;21.916;2023-04-08T03:37:30;993.0;;;6.3;70.0
53940;BME280;39850;43.324;21.916;2023-04-08T03:42:07;993.0;;;6.2;69.0
53940;BME280;39850;43.324;21.916;2023-04-08T03:46:44;993.0;;;6.2;69.0
53940;BME280;39850;43.324;21.916;2023-04-08T04:23:37;994.0;;;6.4;71.0
53940;BME280;39850;43.324;21.916;2023-04-08T04:28:14;994.0;;;6.4;71.0
53940;BME280;39850;43.324;21.916;2023-04-08T04:32:51;994.0;;;6.4;71.0
53940;BME280;39850;43.324;21.916;2023-04-08T04:37:27;994.0;;;6.4;71.0
53940;BME280;39850;43.324;21.916;2023-04-08T04:42:04;994.0;;;6.4;71.0
53940;BME280;39850;43.324;21.916;2023-04-08T04:46:41;994.0;;;6.4;71.0
53940;BME280;39850;43.324;21.916;2023-04-08T04:51:18;994.0;;;6.4;71.0
53940;BME280;39850;43.324;21.916;2023-04-08T04:55:55;994.0;;;6.4;71.0
53940;BME280;39850;43.324;21.916;2023-04-08T05:00:32;994.0;;;6.4;71.0
53940;BME280;39850;43.324;21.916;2023-04-08T05:05:09;994.0;;;6.4;71.0
53940;BME280;39850;43.324;21.916;2023-04-08T05:09:46;994.0;;;6.4;71.0
53940;BME280;39850;43.324;21.916;2023-04-08T05:42:03;994.0;;;7.2;69.0
53940;BME280;39850;43.324;21.916;2023-04-08T05:46:40;994.0;;;7.2;69.0
53940;BME280;39850;43.324;21.916;2023-04-08T05:51:17;994.0;;;7.2;68.0
53940;BME280;39850;43.324;21.916;2023-04-08T05:55:54;994.0;;;7.2;68.0
53940;BME280;39850;43.324;21.916;2023-04-08T06:00:31;994.0;;;7.1;67.0
53940;BME280;39850;43.324;21.916;2023-04-08T06:05:10;994.0;;;7.1;67.0
53940;BME280;39850;43.324;21.916;2023-04-08T06:09:47;994.0;;;7.1;67.0
53940;BME280;39850;43.324;21.916;2023-04-08T06:14:24;994.0;;;7.1;67.0
53940;BME280;39850;43.324;21.916;2023-04-08T06:19:00;994.0;;;7.1;67.0
53940;BME280;39850;43.324;21.916;2023-04-08T06:23:37;994.0;;;7.1;67.0
53940;BME280;39850;43.324;21.916;2023-04-08T06:28:14;994.0;;;7.1;67.0
53940;BME280;39850;43.324;21.916;2023-04-08T07:05:07;994.0;;;9.1;65.0
53940;BME280;39850;43.324;21.916;2023-04-08T07:09:44;994.0;;;9.1;65.0
53940;BME280;39850;43.324;21.916;2023-04-08T07:14:21;994.0;;;9.1;65.0
53940;BME280;39850;43.324;21.916;2023-04-08T07:18:57;994.0;;;9.1;65.0
53940;BME280;39850;43.324;21.916;2023-04-08T07:23:34;994.0;;;9.1;65.0
53940;BME280;39850;43.324;21.916;2023-04-08T07:28:11;994.0;;;9.1;65.0
53940;BME280;39850;43.324;21.916;2023-04-08T07:32:48;994.0;;;9.6;69.0
53940;BME280;39850;43.324;21.916;2023-04-08T07:37:25;994.0;;;9.6;69.0
53940;BME280;39850;43.324;21.916;2023-04-08T07:42:02;994.0;;;10.1;73.0
53940;BME280;39850;43.324;21.916;2023-04-08T07:46:39;994.0;;;10.1;73.0
53940;BME280;39850;43.324;21.916;2023-04-08T08:23:35;994.0;;;10.0;61.0
53940;BME280;39850;43.324;21.916;2023-04-08T08:28:12;994.0;;;10.0;61.0
53940;BME280;39850;43.324;21.916;2023-04-08T08:32:48;994.0;;;9.9;61.0
53940;BME280;39850;43.324;21.916;2023-04-08T08:37:25;994.0;;;9.9;61.0
53940;BME280;39850;43.324;21.916;2023-04-08T08:42:02;994.0;;;9.9;61.0
53940;BME280;39850;43.324;21.916;2023-04-08T08:46:47;994.0;;;9.9;61.0
53940;BME280;39850;43.324;21.916;2023-04-08T08:51:27;994.0;;;9.9;61.0
53940;BME280;39850;43.324;21.916;2023-04-08T08:56:09;994.0;;;9.9;61.0
53940;BME280;39850;43.324;21.916;2023-04-08T09:00:46;994.0;;;9.9;61.0
53940;BME280;39850;43.324;21.916;2023-04-08T09:05:23;994.0;;;9.9;62.0
53940;BME280;39850;43.324;21.916;2023-04-08T09:10:01;994.0;;;9.9;62.0
53940;BME280;39850;43.324;21.916;2023-04-08T09:42:22;994.0;;;12.7;50.0
53940;BME280;39850;43.324;21.916;2023-04-08T09:47:28;994.0;;;12.7;50.0
53940;BME280;39850;43.324;21.916;2023-04-08T09:52:32;994.0;;;12.7;49.0
53940;BME280;39850;43.324;21.916;2023-04-08T09:57:36;994.0;;;12.7;49.0
53940;BME280;39850;43.324;21.916;2023-04-08T10:02:51;994.0;;;12.7;48.0
53940;BME280;39850;43.324;21.916;2023-04-08T10:07:37;994.0;;;12.7;48.0
53940;BME280;39850;43.324;21.916;2023-04-08T10:12:15;994.0;;;12.6;47.0
53940;BME280;39850;43.324;21.916;2023-04-08T10:17:26;994.0;;;12.6;47.0
53940;BME280;39850;43.324;21.916;2023-04-08T10:22:56;994.0;;;12.6;46.0
53940;BME280;39850;43.324;21.916;2023-04-08T10:27:40;994.0;;;12.6;46.0
53940;BME280;39850;43.324;21.916;2023-04-08T11:05:15;994.0;;;14.4;46.0
53940;BME280;39850;43.324;21.916;2023-04-08T11:09:52;994.0;;;14.4;46.0
53940;BME280;39850;43.324;21.916;2023-04-08T11:14:30;994.0;;;14.4;45.0
53940;BME280;39850;43.324;21.916;2023-04-08T11:19:08;994.0;;;14.4;45.0
53940;BME280;39850;43.324;21.916;2023-04-08T11:23:49;993.0;;;14.4;46.0
53940;BME280;39850;43.324;21.916;2023-04-08T11:28:29;993.0;;;14.4;46.0
53940;BME280;39850;43.324;21.916;2023-04-08T11:33:09;993.0;;;14.4;46.0
53940;BME280;39850;43.324;21.916;2023-04-08T11:37:48;993.0;;;14.4;46.0
53940;BME280;39850;43.324;21.916;2023-04-08T11:42:32;993.0;;;14.4;46.0
53940;BME280;39850;43.324;21.916;2023-04-08T11:47:09;993.0;;;14.4;46.0
53940;BME280;39850;43.324;21.916;2023-04-08T12:24:24;993.0;;;13.7;37.0
53940;BME280;39850;43.324;21.916;2023-04-08T12:29:00;993.0;;;13.7;37.0
53940;BME280;39850;43.324;21.916;2023-04-08T12:33:37;993.0;;;13.7;37.0
53940;BME280;39850;43.324;21.916;2023-04-08T12:38:13;993.0;;;13.7;37.0
53940;BME280;39850;43.324;21.916;2023-04-08T12:42:50;993.0;;;13.7;37.0
53940;BME280;39850;43.324;21.916;2023-04-08T12:47:27;993.0;;;13.7;37.0
53940;BME280;39850;43.324;21.916;2023-04-08T12:52:04;992.0;;;14.2;36.0
53940;BME280;39850;43.324;21.916;2023-04-08T12:56:41;992.0;;;14.2;36.0
53940;BME280;39850;43.324;21.916;2023-04-08T13:01:19;992.0;;;14.2;36.0
53940;BME280;39850;43.324;21.916;2023-04-08T13:05:56;992.0;;;14.6;36.0
53940;BME280;39850;43.324;21.916;2023-04-08T13:10:33;992.0;;;14.6;36.0
53940;BME280;39850;43.324;21.916;2023-04-08T13:42:50;992.0;;;13.5;33.0
53940;BME280;39850;43.324;21.916;2023-04-08T13:47:28;992.0;;;13.5;33.0
53940;BME280;39850;43.324;21.916;2023-04-08T13:52:05;992.0;;;13.5;33.0
53940;BME280;39850;43.324;21.916;2023-04-08T13:56:41;992.0;;;13.6;34.0
53940;BME280;39850;43.324;21.916;2023-04-08T14:01:18;992.0;;;13.6;34.0
53940;BME280;39850;43.324;21.916;2023-04-08T14:05:55;992.0;;;13.7;35.0
53940;BME280;39850;43.324;21.916;2023-04-08T14:10:32;992.0;;;13.7;35.0
53940;BME280;39850;43.324;21.916;2023-04-08T14:15:10;992.0;;;13.7;37.0
53940;BME280;39850;43.324;21.916;2023-04-08T14:19:47;992.0;;;13.7;37.0
53940;BME280;39850;43.324;21.916;2023-04-08T14:24:24;992.0;;;13.7;40.0
53940;BME280;39850;43.324;21.916;2023-04-08T14:29:05;992.0;;;13.7;40.0
53940;BME280;39850;43.324;21.916;2023-04-08T15:05:58;992.0;;;11.8;51.0
53940;BME280;39850;43.324;21.916;2023-04-08T15:10:35;992.0;;;11.8;51.0
53940;BME280;39850;43.324;21.916;2023-04-08T15:15:12;992.0;;;11.8;51.0
53940;BME280;39850;43.324;21.916;2023-04-08T15:19:49;992.0;;;11.8;51.0
53940;BME280;39850;43.324;21.916;2023-04-08T15:24:26;992.0;;;11.8;52.0
53940;BME280;39850;43.324;21.916;2023-04-08T15:29:03;992.0;;;11.8;52.0
53940;BME280;39850;43.324;21.916;2023-04-08T15:33:39;992.0;;;11.7;52.0
53940;BME280;39850;43.324;21.916;2023-04-08T15:38:17;992.0;;;11.7;52.0
53940;BME280;39850;43.324;21.916;2023-04-08T15:42:55;992.0;;;11.6;52.0
53940;BME280;39850;43.324;21.916;2023-04-08T15:47:32;992.0;;;11.6;52.0
53940;BME280;39850;43.324;21.916;2023-04-08T15:52:09;992.0;;;11.6;52.0
53940;BME280;39850;43.324;21.916;2023-04-08T16:24:27;993.0;;;11.8;52.0
53940;BME280;39850;43.324;21.916;2023-04-08T16:29:03;993.0;;;11.8;52.0
53940;BME280;39850;43.324;21.916;2023-04-08T16:33:40;993.0;;;11.6;53.0
53940;BME280;39850;43.324;21.916;2023-04-08T16:38:17;993.0;;;11.6;53.0
53940;BME280;39850;43.324;21.916;2023-04-08T16:42:54;993.0;;;11.4;53.0
53940;BME280;39850;43.324;21.916;2023-04-08T16:47:31;993.0;;;11.4;53.0
53940;BME280;39850;43.324;21.916;2023-04-08T16:52:09;993.0;;;11.4;53.0
53940;BME280;39850;43.324;21.916;2023-04-08T16:56:45;993.0;;;11.1;54.0
53940;BME280;39850;43.324;21.916;2023-04-08T17:01:22;993.0;;;11.1;54.0
53940;BME280;39850;43.324;21.916;2023-04-08T17:06:09;993.0;;;10.8;55.0
53940;BME280;39850;43.324;21.916;2023-04-08T17:10:48;993.0;;;10.8;55.0
53940;BME280;39850;43.324;21.916;2023-04-08T17:43:04;993.0;;;9.8;61.0
53940;BME280;39850;43.324;21.916;2023-04-08T17:47:41;993.0;;;9.8;61.0
53940;BME280;39850;43.324;21.916;2023-04-08T17:52:18;993.0;;;9.8;61.0
53940;BME280;39850;43.324;21.916;2023-04-08T17:56:55;993.0;;;9.9;62.0
53940;BME280;39850;43.324;21.916;2023-04-08T18:01:31;993.0;;;9.9;62.0
53940;BME280;39850;43.324;21.916;2023-04-08T18:06:08;993.0;;;10.0;62.0
53940;BME280;39850;43.324;21.916;2023-04-08T18:10:45;993.0;;;10.0;62.0
53940;BME280;39850;43.324;21.916;2023-04-08T18:15:21;994.0;;;10.0;63.0
53940;BME280;39850;43.324;21.916;2023-04-08T18:19:58;994.0;;;10.0;63.0
53940;BME280;39850;43.324;21.916;2023-04-08T18:24:35;994.0;;;10.0;63.0
53940;BME280;39850;43.324;21.916;2023-04-08T18:29:12;994.0;;;10.0;63.0
53940;BME280;39850;43.324;21.916;2023-04-08T19:06:08;994.0;;;10.0;65.0
53940;BME280;39850;43.324;21.916;2023-04-08T19:10:45;994.0;;;10.0;65.0
53940;BME280;39850;43.324;21.916;2023-04-08T19:15:21;994.0;;;9.4;66.0
53940;BME280;39850;43.324;21.916;2023-04-08T19:19:58;994.0;;;9.4;66.0
53940;BME280;39850;43.324;21.916;2023-04-08T19:24:35;994.0;;;9.1;66.0
53940;BME280;39850;43.324;21.916;2023-04-08T19:29:12;994.0;;;9.1;66.0
53940;BME280;39850;43.324;21.916;2023-04-08T19:33:49;994.0;;;9.0;67.0
53940;BME280;39850;43.324;21.916;2023-04-08T19:38:25;994.0;;;9.0;67.0
53940;BME280;39850;43.324;21.916;2023-04-08T19:43:02;994.0;;;9.0;67.0
53940;BME280;39850;43.324;21.916;2023-04-08T19:47:40;994.0;;;9.1;67.0
53940;BME280;39850;43.324;21.916;2023-04-08T19:52:18;994.0;;;9.1;67.0
53940;BME280;39850;43.324;21.916;2023-04-08T20:24:33;995.0;;;8.9;67.0
53940;BME280;39850;43.324;21.916;2023-04-08T20:29:10;995.0;;;8.9;67.0
53940;BME280;39850;43.324;21.916;2023-04-08T20:33:49;995.0;;;8.9;67.0
53940;BME280;39850;43.324;21.916;2023-04-08T20:38:25;995.0;;;8.9;67.0
53940;BME280;39850;43.324;21.916;2023-04-08T20:43:02;995.0;;;8.9;67.0
53940;BME280;39850;43.324;21.916;2023-04-08T20:47:39;995.0;;;8.9;67.0
53940;BME280;39850;43.324;21.916;2023-04-08T20:52:15;995.0;;;8.9;67.0
53940;BME280;39850;43.324;21.916;2023-04-08T20:56:52;995.0;;;8.9;67.0
53940;BME280;39850;43.324;21.916;2023-04-08T21:01:28;995.0;;;8.9;67.0
53940;BME280;39850;43.324;21.916;2023-04-08T21:06:05;995.0;;;8.9;67.0
53940;BME280;39850;43.324;21.916;2023-04-08T21:10:42;995.0;;;8.9;67.0
53940;BME280;39850;43.324;21.916;2023-04-08T21:47:33;995.0;;;8.0;71.0
53940;BME280;39850;43.324;21.916;2023-04-08T21:52:10;995.0;;;8.0;71.0
53940;BME280;39850;43.324;21.916;2023-04-08T21:56:47;995.0;;;8.0;71.0
53940;BME280;39850;43.324;21.916;2023-04-08T22:01:24;995.0;;;8.0;71.0
53940;BME280;39850;43.324;21.916;2023-04-08T22:06:01;995.0;;;8.0;71.0
53940;BME280;39850;43.324;21.916;2023-04-08T22:10:38;995.0;;;8.0;71.0
53940;BME280;39850;43.324;21.916;2023-04-08T22:15:15;995.0;;;8.0;71.0
53940;BME280;39850;43.324;21.916;2023-04-08T22:19:52;995.0;;;8.0;71.0
53940;BME280;39850;43.324;21.916;2023-04-08T22:24:29;995.0;;;8.0;71.0
53940;BME280;39850;43.324;21.916;2023-04-08T22:29:05;995.0;;;8.0;71.0
53940;BME280;39850;43.324;21.916;2023-04-08T22:33:42;995.0;;;8.0;71.0
53940;BME280;39850;43.324;21.916;2023-04-08T23:05:57;995.0;;;8.1;71.0
53940;BME280;39850;43.324;21.916;2023-04-08T23:10:34;995.0;;;8.1;71.0
53940;BME280;39850;43.324;21.916;2023-04-08T23:15:10;995.0;;;8.1;71.0
53940;BME280;39850;43.324;21.916;2023-04-08T23:19:47;995.0;;;8.1;71.0
53940;BME280;39850;43.324;21.916;2023-04-08T23:24:24;995.0;;;8.1;71.0
53940;BME280;39850;43.324;21.916;2023-04-08T23:29:01;995.0;;;8.1;71.0
53940;BME280;39850;43.324;21.916;2023-04-08T23:33:39;995.0;;;8.1;71.0
53940;BME280;39850;43.324;21.916;2023-04-08T23:38:16;995.0;;;8.1;71.0
53940;BME280;39850;43.324;21.916;2023-04-08T23:42:53;995.0;;;8.1;71.0
53940;BME280;39850;43.324;21.916;2023-04-08T23:47:29;995.0;;;8.0;71.0
53940;BME280;39850;43.324;21.916;2023-04-08T23:52:06;995.0;;;8.0;71.0
